METAR AND TAF INFORMATION
METAR FOR KPVF
ADDS - METARS form results

(0316 UTC 20 April 2021)
Data provider http://aviationweather.gov/metar/data/
 
METAR text: KPVF 200255Z AUTO 19003KT 10SM CLR 19/04 A3003 RMK AO1
Conditions at: KPVF (PLACERVILLE , CA, US) observed 0255 UTC 20 April 2021
Temperature: 19.0°C (66°F)
Dewpoint: 4.0°C (39°F) [RH = 37%]
Pressure (altimeter): 30.03 inches Hg (1017.0 mb)
Winds: from the S (190 degrees) at 3 MPH (3 knots; 1.5 m/s)
Visibility: 10 or more miles (16+ km)
Ceiling: at least 12,000 feet AGL
Clouds: sky clear below 12,000 feet AGL
Weather: automated observation with no human augmentation;
there may or may not be significant weather present at this time

METAR text: KPVF 200235Z AUTO 22004KT 10SM CLR 19/05 A3004 RMK AO1
Conditions at: KPVF (PLACERVILLE , CA, US) observed 0235 UTC 20 April 2021
Temperature: 19.0°C (66°F)
Dewpoint: 5.0°C (41°F) [RH = 40%]
Pressure (altimeter): 30.04 inches Hg (1017.4 mb)
Winds: from the SW (220 degrees) at 5 MPH (4 knots; 2.1 m/s)
Visibility: 10 or more miles (16+ km)
Ceiling: at least 12,000 feet AGL
Clouds: sky clear below 12,000 feet AGL
Weather: automated observation with no human augmentation;
there may or may not be significant weather present at this time

 AIRPORT MAP

 RUNWAY INFORMATION
Runway 05 Runway length 4201 ft Runway width 75 ft
Runway elevation 2577 ft Runway displaced threshold 0 ft Runway heading 63
Runway 23 Runway length 4201 ft Runway width 75 ft
Runway elevation 2579 ft Runway displaced threshold 0 ft Runway heading 243

 AIRPORT FREQUENCIES
Type A/D Name NORCAL APP Frequency 127.4 MHZ
Type RDO Name RANCHO RDO Frequency 115.5 MHZ
Type UNIC Name CTAF/UNICO Frequency 122.8 MHZ

 AIRPORT NEAR NAVIGATION AIDS



Powered by Virtual Airlines Manager [v2.6.2]